createdAt,value
2023-05-12T00:03:33.516Z,11.38
2023-05-12T00:07:36.558Z,13.20
2023-05-12T00:11:39.413Z,12.52
2023-05-12T00:15:42.781Z,11.40
2023-05-12T00:19:48.269Z,11.32
2023-05-12T00:23:50.957Z,10.55
2023-05-12T00:27:53.786Z,10.65
2023-05-12T00:32:03.198Z,9.95
2023-05-12T00:36:10.419Z,9.40
2023-05-12T00:40:22.991Z,9.30
2023-05-12T00:44:29.736Z,9.82
2023-05-12T00:48:33.684Z,8.95
2023-05-12T00:52:41.324Z,8.25
2023-05-12T00:56:44.218Z,8.75
2023-05-12T01:00:47.313Z,9.05
2023-05-12T01:04:51.055Z,8.63
2023-05-12T01:08:56.076Z,8.48
2023-05-12T01:12:58.815Z,8.18
2023-05-12T01:17:04.499Z,8.30
2023-05-12T01:21:09.924Z,7.85
2023-05-12T01:25:16.685Z,7.05
2023-05-12T01:29:22.791Z,7.25
2023-05-12T01:33:25.860Z,7.68
2023-05-12T01:37:28.993Z,7.80
2023-05-12T01:41:32.622Z,7.80
2023-05-12T01:45:37.084Z,7.60
2023-05-12T01:49:39.873Z,7.38
2023-05-12T01:53:46.154Z,6.93
2023-05-12T01:57:49.977Z,6.80
2023-05-12T02:01:54.765Z,6.55
2023-05-12T02:06:05.217Z,6.13
2023-05-12T02:10:09.429Z,6.43
2023-05-12T02:14:12.376Z,5.85
2023-05-12T02:18:16.532Z,5.53
2023-05-12T02:22:19.322Z,5.10
2023-05-12T02:26:22.247Z,4.95
2023-05-12T02:30:25.331Z,4.82
2023-05-12T02:34:29.587Z,4.60
2023-05-12T02:38:32.741Z,4.47
2023-05-12T02:42:38.241Z,4.15
2023-05-12T02:46:41.216Z,4.80
2023-05-12T02:50:45.664Z,4.30
2023-05-12T02:54:48.358Z,4.25
2023-05-12T02:58:51.121Z,4.45
2023-05-12T03:02:53.918Z,4.50
2023-05-12T03:06:58.087Z,4.43
2023-05-12T03:11:00.891Z,4.38
2023-05-12T03:15:04.552Z,4.63
2023-05-12T03:19:07.514Z,4.20
2023-05-12T03:23:11.830Z,4.97
2023-05-12T03:27:15.043Z,5.00
2023-05-12T03:31:18.008Z,4.93
2023-05-12T03:35:22.046Z,4.40
2023-05-12T03:39:26.646Z,4.70
2023-05-12T03:43:29.629Z,4.40
2023-05-12T03:47:32.644Z,4.30
2023-05-12T03:51:35.525Z,4.25
2023-05-12T03:55:42.326Z,4.30
2023-05-12T03:59:46.501Z,4.03
2023-05-12T04:03:50.039Z,4.15
2023-05-12T04:07:55.131Z,4.28
2023-05-12T04:12:00.302Z,4.40
2023-05-12T04:16:03.853Z,4.15
2023-05-12T04:20:08.279Z,4.03
2023-05-12T04:24:12.305Z,4.28
2023-05-12T04:28:16.637Z,3.80
2023-05-12T04:32:19.929Z,4.22
2023-05-12T04:36:22.958Z,4.38
2023-05-12T04:40:25.833Z,4.53
2023-05-12T04:44:30.249Z,4.43
2023-05-12T04:48:33.243Z,4.63
2023-05-12T04:52:36.065Z,4.97
2023-05-12T04:56:38.889Z,4.78
2023-05-12T05:00:44.754Z,4.40
2023-05-12T05:04:47.962Z,4.57
2023-05-12T05:08:51.743Z,4.70
2023-05-12T05:12:54.689Z,4.40
2023-05-12T05:16:59.929Z,4.43
2023-05-12T05:21:02.903Z,4.35
2023-05-12T05:25:06.902Z,4.30
2023-05-12T05:29:09.892Z,4.40
2023-05-12T05:33:14.217Z,4.28
2023-05-12T05:37:19.579Z,4.15
2023-05-12T05:41:22.992Z,4.50
2023-05-12T05:45:28.116Z,3.50
2023-05-12T05:49:33.213Z,4.70
2023-05-12T05:53:37.422Z,3.97
2023-05-12T05:57:40.474Z,3.55
2023-05-12T06:01:44.981Z,3.40
2023-05-12T06:05:52.649Z,3.70
2023-05-12T06:09:59.176Z,3.33
2023-05-12T06:14:02.668Z,3.50
2023-05-12T06:18:05.837Z,3.25
2023-05-12T06:22:10.085Z,3.70
2023-05-12T06:26:13.165Z,3.28
2023-05-12T06:30:16.552Z,3.50
2023-05-12T06:34:19.433Z,3.00
2023-05-12T06:38:23.816Z,3.40
2023-05-12T06:42:26.745Z,3.50
2023-05-12T06:46:32.426Z,3.60
2023-05-12T06:50:36.196Z,3.55
2023-05-12T06:54:40.450Z,3.08
2023-05-12T06:58:43.410Z,2.92
2023-05-12T07:02:46.262Z,3.10
2023-05-12T07:06:49.259Z,3.40
2023-05-12T07:10:53.489Z,3.17
2023-05-12T07:14:56.267Z,3.05
2023-05-12T07:18:59.174Z,3.03
2023-05-12T07:23:02.160Z,3.05
2023-05-12T07:27:06.856Z,2.80
2023-05-12T07:31:09.822Z,2.92
2023-05-12T07:35:13.055Z,2.72
2023-05-12T07:39:19.271Z,2.92
2023-05-12T07:43:23.533Z,2.70
2023-05-12T07:47:26.399Z,2.50
2023-05-12T07:51:29.274Z,3.17
2023-05-12T07:55:33.290Z,2.50
2023-05-12T07:59:37.528Z,2.42
2023-05-12T08:03:40.498Z,2.63
2023-05-12T08:07:43.966Z,2.33
2023-05-12T08:11:49.333Z,2.40
2023-05-12T08:15:54.954Z,2.55
2023-05-12T08:19:57.705Z,2.30
2023-05-12T08:24:00.534Z,1.80
2023-05-12T08:28:04.572Z,1.90
2023-05-12T08:32:08.920Z,2.05
2023-05-12T08:36:12.139Z,2.20
2023-05-12T08:40:18.746Z,2.70
2023-05-12T08:44:22.336Z,1.90
2023-05-12T08:48:28.855Z,2.75
2023-05-12T08:52:34.281Z,2.13
2023-05-12T09:00:43.555Z,2.30
2023-05-12T09:04:48.371Z,2.13
2023-05-12T09:08:53.985Z,2.33
2023-05-12T09:13:04.853Z,2.03
2023-05-12T09:17:08.337Z,3.00
2023-05-12T09:21:12.902Z,2.72
2023-05-12T09:25:17.108Z,2.80
2023-05-12T09:29:31.204Z,2.42
2023-05-12T09:33:36.099Z,2.60
2023-05-12T09:37:40.872Z,3.08
2023-05-12T09:41:44.151Z,3.10
2023-05-12T09:45:50.027Z,5.32
2023-05-12T09:49:53.320Z,2.78
2023-05-12T09:53:57.556Z,4.25
2023-05-12T09:58:02.624Z,3.03
2023-05-12T10:02:07.643Z,3.28
2023-05-12T10:06:16.056Z,2.55
2023-05-12T10:10:24.878Z,3.00
2023-05-12T10:14:28.181Z,3.10
2023-05-12T10:18:32.405Z,3.03
2023-05-12T10:22:36.244Z,3.85
2023-05-12T10:26:41.894Z,3.40
2023-05-12T10:30:45.372Z,3.10
2023-05-12T10:34:48.170Z,3.40
2023-05-12T10:38:50.930Z,3.10
2023-05-12T10:42:59.575Z,4.32
2023-05-12T10:47:02.339Z,3.13
2023-05-12T10:51:09.143Z,3.78
2023-05-12T10:55:14.081Z,3.13
2023-05-12T10:59:20.274Z,3.53
2023-05-12T11:03:26.171Z,3.78
2023-05-12T11:07:33.115Z,4.30
2023-05-12T11:11:36.599Z,3.80
2023-05-12T11:15:44.518Z,3.83
2023-05-12T11:19:49.445Z,3.67
2023-05-12T11:23:52.364Z,3.70
2023-05-12T11:27:55.324Z,4.10
2023-05-12T11:32:00.840Z,3.55
2023-05-12T11:36:05.936Z,3.83
2023-05-12T11:40:19.498Z,3.95
2023-05-12T11:44:23.318Z,3.80
2023-05-12T11:48:34.554Z,4.22
2023-05-12T11:52:37.434Z,3.95
2023-05-12T11:56:49.220Z,3.70
2023-05-12T12:00:51.976Z,4.03
2023-05-12T12:04:59.329Z,4.40
2023-05-12T12:09:02.150Z,4.25
2023-05-12T12:13:04.917Z,4.55
2023-05-12T12:17:07.618Z,4.22
2023-05-12T12:21:11.710Z,4.10
2023-05-12T12:25:14.455Z,4.10
2023-05-12T12:29:17.765Z,3.70
2023-05-12T12:33:20.836Z,3.55
2023-05-12T12:37:26.646Z,3.40
2023-05-12T12:41:29.789Z,3.33
2023-05-12T12:45:36.220Z,3.40
2023-05-12T12:49:39.592Z,3.70
2023-05-12T12:53:45.631Z,2.90
2023-05-12T12:57:48.535Z,4.07
2023-05-12T13:01:51.573Z,3.95
2023-05-12T13:05:55.071Z,4.28
2023-05-12T13:09:59.375Z,4.10
2023-05-12T13:14:04.229Z,4.20
2023-05-12T13:18:07.100Z,4.05
2023-05-12T13:22:10.014Z,4.15
2023-05-12T13:26:15.771Z,4.10
2023-05-12T13:30:18.538Z,4.88
2023-05-12T13:34:22.362Z,4.68
2023-05-12T13:38:26.529Z,4.57
2023-05-12T13:42:30.871Z,4.07
2023-05-12T13:46:34.065Z,3.90
2023-05-12T13:50:37.143Z,3.75
2023-05-12T13:54:39.969Z,3.70
2023-05-12T13:58:44.360Z,3.70
2023-05-12T14:02:47.340Z,3.50
2023-05-12T14:06:50.288Z,3.40
2023-05-12T14:10:53.266Z,3.78
2023-05-12T14:15:07.284Z,3.42
2023-05-12T14:19:16.123Z,3.83
2023-05-12T14:23:19.002Z,3.58
2023-05-12T14:27:21.706Z,4.55
2023-05-12T14:31:25.909Z,4.00
2023-05-12T14:35:28.788Z,4.03
2023-05-12T14:39:31.621Z,4.00
2023-05-12T14:43:34.383Z,3.42
2023-05-12T14:47:38.480Z,3.35
2023-05-12T14:51:41.746Z,3.63
2023-05-12T14:55:45.667Z,3.92
2023-05-12T14:59:48.661Z,3.70
2023-05-12T15:03:54.331Z,3.40
2023-05-12T15:07:57.043Z,3.83
2023-05-12T15:11:59.851Z,3.60
2023-05-12T15:16:04.595Z,3.78
2023-05-12T15:20:10.130Z,5.18
2023-05-12T15:24:12.960Z,4.78
2023-05-12T15:28:15.818Z,5.50
2023-05-12T15:32:18.627Z,4.50
2023-05-12T15:36:22.718Z,3.92
2023-05-12T15:40:25.704Z,4.00
2023-05-12T15:44:28.600Z,4.78
2023-05-12T15:48:31.496Z,3.78
2023-05-12T15:52:35.554Z,4.20
2023-05-12T15:56:38.807Z,3.80
2023-05-12T16:00:41.809Z,4.07
2023-05-12T16:04:44.651Z,3.50
2023-05-12T16:08:49.008Z,3.97
2023-05-12T16:12:51.809Z,4.80
2023-05-12T16:16:54.613Z,3.88
2023-05-12T16:20:57.742Z,3.72
2023-05-12T16:25:01.804Z,3.88
2023-05-12T16:29:04.862Z,3.78
2023-05-12T16:33:08.073Z,3.83
2023-05-12T16:37:11.073Z,3.45
2023-05-12T16:41:15.211Z,3.28
2023-05-12T16:45:18.863Z,3.50
2023-05-12T16:49:24.336Z,3.55
2023-05-12T16:53:28.822Z,3.97
2023-05-12T16:57:33.068Z,3.20
2023-05-12T17:01:39.655Z,3.25
2023-05-12T17:05:43.773Z,4.15
2023-05-12T17:09:46.720Z,3.85
2023-05-12T17:13:51.131Z,4.03
2023-05-12T17:17:54.283Z,4.40
2023-05-12T17:21:57.377Z,3.72
2023-05-12T17:26:00.472Z,3.90
2023-05-12T17:30:06.828Z,3.80
2023-05-12T17:34:10.019Z,4.05
2023-05-12T17:38:14.022Z,3.70
2023-05-12T17:42:17.056Z,3.90
2023-05-12T17:46:21.414Z,4.78
2023-05-12T17:50:24.402Z,4.47
2023-05-12T17:54:27.473Z,4.60
2023-05-12T17:58:30.798Z,4.55
2023-05-12T18:02:35.097Z,4.80
2023-05-12T18:06:38.787Z,6.07
2023-05-12T18:10:42.556Z,4.90
2023-05-12T18:14:46.096Z,5.45
2023-05-12T18:18:50.583Z,5.40
2023-05-12T18:22:54.170Z,5.07
2023-05-12T18:26:57.275Z,3.78
2023-05-12T18:31:06.075Z,5.30
2023-05-12T18:35:19.864Z,4.68
2023-05-12T18:39:23.672Z,4.60
2023-05-12T18:43:27.020Z,4.13
2023-05-12T18:47:30.299Z,4.10
2023-05-12T18:51:34.681Z,4.10
2023-05-12T18:55:37.723Z,4.07
2023-05-12T18:59:41.005Z,4.00
2023-05-12T19:03:44.164Z,3.92
2023-05-12T19:07:48.927Z,4.20
2023-05-12T19:11:51.964Z,4.00
2023-05-12T19:15:54.917Z,4.00
2023-05-12T19:19:58.093Z,3.90
2023-05-12T19:24:03.361Z,4.28
2023-05-12T19:28:10.238Z,4.30
2023-05-12T19:32:13.611Z,4.22
2023-05-12T19:36:16.842Z,4.45
2023-05-12T19:40:21.345Z,4.90
2023-05-12T19:44:24.424Z,4.90
2023-05-12T19:48:27.318Z,4.85
2023-05-12T19:52:31.357Z,4.63
2023-05-12T19:56:35.959Z,4.60
2023-05-12T20:00:39.553Z,4.25
2023-05-12T20:04:42.878Z,4.70
2023-05-12T20:08:45.721Z,4.28
2023-05-12T20:12:50.128Z,4.28
2023-05-12T20:16:54.311Z,4.30
2023-05-12T20:20:57.290Z,4.90
2023-05-12T20:25:04.446Z,5.05
2023-05-12T20:29:09.003Z,4.80
2023-05-12T20:33:12.952Z,4.78
2023-05-12T20:37:16.027Z,5.10
2023-05-12T20:41:19.544Z,4.20
2023-05-12T20:45:24.198Z,4.90
2023-05-12T20:49:27.296Z,5.03
2023-05-12T20:53:30.680Z,4.55
2023-05-12T20:57:33.681Z,4.82
2023-05-12T21:01:38.913Z,4.80
2023-05-12T21:05:45.197Z,4.82
2023-05-12T21:09:48.376Z,5.22
2023-05-12T21:13:51.172Z,4.90
2023-05-12T21:17:55.380Z,4.70
2023-05-12T21:21:58.648Z,4.55
2023-05-12T21:26:01.562Z,4.65
2023-05-12T21:30:04.676Z,4.85
2023-05-12T21:34:08.987Z,4.90
2023-05-12T21:38:11.913Z,4.72
2023-05-12T21:42:14.807Z,4.80
2023-05-12T21:46:17.674Z,4.70
2023-05-12T21:50:22.580Z,4.95
2023-05-12T21:54:25.586Z,5.03
2023-05-12T21:58:28.381Z,4.90
2023-05-12T22:02:31.400Z,5.45
2023-05-12T22:06:35.541Z,5.60
2023-05-12T22:10:38.325Z,6.07
2023-05-12T22:14:41.229Z,5.43
2023-05-12T22:18:44.412Z,6.78
2023-05-12T22:22:48.707Z,6.88
2023-05-12T22:26:51.673Z,6.40
2023-05-12T22:30:54.666Z,6.45
2023-05-12T22:34:57.694Z,7.07
2023-05-12T22:39:01.885Z,7.22
2023-05-12T22:43:04.869Z,7.00
2023-05-12T22:47:08.470Z,7.07
2023-05-12T22:51:11.631Z,7.57
2023-05-12T22:55:15.991Z,7.22
2023-05-12T22:59:18.719Z,8.00
2023-05-12T23:03:21.498Z,8.18
2023-05-12T23:07:24.528Z,7.25
2023-05-12T23:11:29.578Z,7.78
2023-05-12T23:15:32.285Z,7.38
2023-05-12T23:19:36.843Z,7.13
2023-05-12T23:23:39.604Z,7.38
2023-05-12T23:27:44.207Z,7.03
2023-05-12T23:31:46.912Z,6.22
2023-05-12T23:35:49.910Z,6.60
2023-05-12T23:39:52.679Z,6.43
2023-05-12T23:43:57.297Z,6.72
2023-05-12T23:48:00.642Z,7.78
2023-05-12T23:52:03.799Z,7.25
2023-05-12T23:56:07.364Z,6.65
